Time;durP1;ratioP1;P1;durP2;ratioP2;P2;SDS_P1;SDS_P2;PMS_P1;PMS_P2;Temp;Humidity;BMP_temperature;BMP_pressure;BME280_temperature;BME280_humidity;BME280_pressure;Samples;Min_cycle;Max_cycle;Signal;HPM_P1;HPM_P2
2023/01/04 00:00:48;;;;;;;9.40;2.90;;;29.20;97.60;;;;;;5036606;28;20387;-81
2023/01/04 00:03:15;;;;;;;9.38;2.78;;;29.00;98.00;;;;;;5052807;28;20434;-81
2023/01/04 00:05:42;;;;;;;11.32;2.65;;;28.80;98.40;;;;;;5054130;28;20386;-82
2023/01/04 00:08:09;;;;;;;9.40;2.70;;;28.80;98.10;;;;;;5053299;28;20400;-82
2023/01/04 00:10:36;;;;;;;9.82;2.63;;;28.60;98.70;;;;;;5055104;28;20454;-81
2023/01/04 00:13:03;;;;;;;11.50;2.73;;;28.50;98.80;;;;;;5054226;28;20905;-81
2023/01/04 00:15:32;;;;;;;8.65;2.50;;;28.40;98.70;;;;;;5056043;28;20380;-81
2023/01/04 00:17:59;;;;;;;7.93;2.60;;;28.40;99.20;;;;;;5036690;28;20430;-82
2023/01/04 00:20:26;;;;;;;11.73;2.70;;;28.80;98.80;;;;;;5019964;28;20925;-81
2023/01/04 00:22:53;;;;;;;6.72;2.10;;;29.30;98.20;;;;;;5054295;28;20442;-82
2023/01/04 00:25:19;;;;;;;7.03;2.28;;;29.50;97.00;;;;;;5056097;28;20381;-82
2023/01/04 00:27:46;;;;;;;7.07;2.20;;;29.40;97.30;;;;;;5053541;28;20375;-81
2023/01/04 00:30:13;;;;;;;9.63;2.47;;;29.40;97.00;;;;;;5054980;28;20381;-81
2023/01/04 00:32:40;;;;;;;7.43;2.30;;;29.60;96.70;;;;;;5053087;28;20414;-81
2023/01/04 00:35:08;;;;;;;10.52;2.40;;;29.40;97.40;;;;;;5054665;28;20387;-82
2023/01/04 00:37:34;;;;;;;6.88;2.47;;;29.40;97.60;;;;;;5053384;28;20379;-82
2023/01/04 00:40:02;;;;;;;10.13;2.50;;;29.60;97.00;;;;;;5053759;28;20371;-82
2023/01/04 00:42:29;;;;;;;8.10;2.70;;;29.50;96.40;;;;;;5053063;28;20775;-82
2023/01/04 00:44:56;;;;;;;9.70;2.70;;;29.40;96.20;;;;;;5052592;28;20403;-82
2023/01/04 00:47:23;;;;;;;7.90;2.55;;;29.40;96.20;;;;;;5055105;28;20415;-81
2023/01/04 00:49:50;;;;;;;8.00;2.55;;;29.30;95.90;;;;;;5074040;28;20411;-81
2023/01/04 00:52:16;;;;;;;10.03;2.60;;;29.00;96.10;;;;;;5056718;28;20446;-81
2023/01/04 00:54:43;;;;;;;8.05;2.33;;;28.70;96.60;;;;;;5069423;28;20462;-81
2023/01/04 00:57:10;;;;;;;9.27;2.63;;;28.30;97.10;;;;;;5072696;28;20379;-81
2023/01/04 00:59:37;;;;;;;9.35;2.40;;;28.10;97.70;;;;;;5074344;28;20379;-83
2023/01/04 01:02:04;;;;;;;8.30;2.50;;;27.80;98.20;;;;;;5072821;28;20470;-81
2023/01/04 01:04:31;;;;;;;8.13;2.40;;;27.70;98.70;;;;;;5059018;28;20399;-81
2023/01/04 01:06:59;;;;;;;10.18;2.60;;;27.70;98.70;;;;;;5069619;28;20766;-80
2023/01/04 01:09:29;;;;;;;9.70;2.72;;;27.70;98.40;;;;;;5067950;28;20493;-80
2023/01/04 01:11:59;;;;;;;8.77;2.35;;;27.70;98.60;;;;;;5070915;28;21361;-81
2023/01/04 01:14:26;;;;;;;10.18;2.40;;;28.00;98.60;;;;;;5070268;28;20366;-80
2023/01/04 01:16:53;;;;;;;8.32;2.35;;;28.40;97.90;;;;;;5069431;28;20470;-81
2023/01/04 01:19:20;;;;;;;12.45;2.72;;;28.70;97.30;;;;;;5044717;28;20385;-80
2023/01/04 01:21:47;;;;;;;8.73;2.47;;;28.80;96.80;;;;;;5056806;28;20418;-84
2023/01/04 01:24:18;;;;;;;9.07;2.30;;;28.70;97.90;;;;;;5070521;28;20384;-80
2023/01/04 01:26:46;;;;;;;7.88;2.42;;;28.30;98.80;;;;;;5069451;28;20704;-80
2023/01/04 01:29:13;;;;;;;8.00;2.17;;;27.90;99.70;;;;;;5070850;28;20378;-81
2023/01/04 01:31:40;;;;;;;8.57;2.40;;;28.00;99.90;;;;;;5054989;28;20403;-81
2023/01/04 01:34:08;;;;;;;11.55;2.53;;;28.50;99.40;;;;;;5050395;28;20859;-81
2023/01/04 01:36:35;;;;;;;7.38;2.20;;;28.80;98.80;;;;;;5033855;28;20398;-80
2023/01/04 01:39:04;;;;;;;11.00;2.50;;;29.10;98.50;;;;;;5051839;28;20372;-83
2023/01/04 01:41:34;;;;;;;8.20;2.10;;;29.00;98.40;;;;;;5032873;28;20392;-80
2023/01/04 01:44:23;;;;;;;7.53;2.28;;;29.00;98.20;;;;;;5032861;28;20380;-81
2023/01/04 01:46:52;;;;;;;7.93;2.50;;;28.80;98.20;;;;;;5057324;28;20865;-80
2023/01/04 01:49:24;;;;;;;9.45;2.22;;;28.80;98.80;;;;;;5071232;28;20405;-80
2023/01/04 01:51:55;;;;;;;7.38;2.38;;;29.20;98.30;;;;;;5048032;28;20398;-80
2023/01/04 01:54:52;;;;;;;8.60;2.50;;;29.90;97.40;;;;;;5058691;28;20372;-81
2023/01/04 01:57:24;;;;;;;9.50;2.50;;;30.10;96.80;;;;;;5059134;28;20383;-81
2023/01/04 01:59:54;;;;;;;8.48;2.30;;;29.90;96.50;;;;;;5072127;28;20370;-82
2023/01/04 02:02:22;;;;;;;7.22;2.20;;;29.70;96.70;;;;;;5071694;28;20378;-81
2023/01/04 02:04:50;;;;;;;9.73;2.65;;;29.50;96.90;;;;;;5071838;28;20389;-81
2023/01/04 02:07:24;;;;;;;10.88;2.22;;;29.00;97.40;;;;;;5070859;28;20479;-81
2023/01/04 02:09:52;;;;;;;9.85;2.38;;;28.70;97.80;;;;;;5062868;28;20494;-79
2023/01/04 02:12:19;;;;;;;6.88;2.25;;;28.50;98.10;;;;;;5065722;28;20398;-83
2023/01/04 02:14:49;;;;;;;12.23;2.63;;;28.70;98.10;;;;;;5070329;28;20419;-80
2023/01/04 02:17:35;;;;;;;10.70;2.53;;;29.50;97.70;;;;;;5071031;28;20378;-80
2023/01/04 02:20:23;;;;;;;14.68;2.60;;;30.80;96.20;;;;;;5072579;28;20431;-80
2023/01/04 02:23:17;;;;;;;8.90;2.22;;;32.00;94.30;;;;;;5029961;28;20379;-82
2023/01/04 02:26:00;;;;;;;6.55;2.05;;;32.10;93.50;;;;;;5050532;28;20370;-81
2023/01/04 02:28:48;;;;;;;8.43;2.30;;;31.30;93.80;;;;;;5039385;28;20744;-81
2023/01/04 02:31:31;;;;;;;7.38;2.30;;;30.40;94.80;;;;;;5058994;28;20399;-82
2023/01/04 02:34:25;;;;;;;9.75;2.30;;;30.00;95.40;;;;;;5067584;28;20876;-81
2023/01/04 02:37:03;;;;;;;11.27;2.50;;;29.80;95.90;;;;;;5066461;28;20391;-81
2023/01/04 02:39:47;;;;;;;10.27;2.45;;;29.60;96.30;;;;;;5039537;28;20408;-81
2023/01/04 02:44:51;;;;;;;9.57;2.40;;;29.10;96.50;;;;;;5067650;28;20366;-81
2023/01/04 02:45:14;;;;;;;9.93;2.50;;;28.20;97.90;;;;;;5065733;28;20374;-81
2023/01/04 02:50:50;;;;;;;9.75;2.70;;;27.20;99.60;;;;;;5047291;28;20353;-81
2023/01/04 02:53:37;;;;;;;11.80;2.50;;;26.70;99.90;;;;;;5057213;28;20450;-80
2023/01/04 02:56:14;;;;;;;8.70;2.60;;;26.30;99.90;;;;;;5072145;28;20369;-79
2023/01/04 02:59:05;;;;;;;9.73;2.47;;;26.20;99.90;;;;;;5073817;28;20374;-80
2023/01/04 03:08:03;;;;;;;10.73;2.70;;;25.50;99.90;;;;;;5072426;28;20397;-81
2023/01/04 03:10:48;;;;;;;10.90;2.85;;;25.30;99.90;;;;;;5071802;28;20480;-81
2023/01/04 03:13:24;;;;;;;11.77;3.08;;;25.00;99.90;;;;;;5071928;28;20735;-82
2023/01/04 03:15:55;;;;;;;29.58;5.43;;;24.70;99.90;;;;;;5071395;28;20406;-81
2023/01/04 03:18:34;;;;;;;22.73;5.07;;;24.30;99.90;;;;;;5072221;28;20435;-81
2023/01/04 03:21:04;;;;;;;22.90;5.03;;;23.60;99.90;;;;;;5052832;28;20859;-81
2023/01/04 03:35:44;;;;;;;23.83;6.07;;;21.70;99.90;;;;;;5051695;28;20387;-81
2023/01/04 03:50:20;;;;;;;18.45;6.18;;;21.50;99.90;;;;;;5052703;28;20367;-81
2023/01/04 03:52:49;;;;;;;18.95;6.35;;;21.60;99.90;;;;;;5042875;28;20416;-77
2023/01/04 03:55:18;;;;;;;17.75;5.90;;;21.70;99.90;;;;;;5061773;28;20384;-80
2023/01/04 03:57:46;;;;;;;19.83;5.63;;;21.80;99.90;;;;;;5048927;28;20391;-81
2023/01/04 04:00:16;;;;;;;18.42;5.75;;;21.80;99.90;;;;;;5034889;28;20385;-80
2023/01/04 04:02:46;;;;;;;18.35;5.60;;;21.90;99.90;;;;;;5052039;28;20379;-78
2023/01/04 04:08:25;;;;;;;16.92;5.18;;;22.10;99.90;;;;;;5039797;28;20394;-83
2023/01/04 04:10:53;;;;;;;16.10;5.00;;;22.20;99.90;;;;;;5051957;28;20420;-82
2023/01/04 04:13:20;;;;;;;16.00;4.95;;;22.30;99.90;;;;;;5053060;28;20383;-82
2023/01/04 04:15:48;;;;;;;14.95;4.63;;;22.30;99.90;;;;;;5052884;28;20408;-83
2023/01/04 04:18:15;;;;;;;14.80;4.78;;;22.40;99.90;;;;;;5052008;28;20384;-83
2023/01/04 04:20:42;;;;;;;15.85;4.80;;;22.30;99.90;;;;;;5052506;28;20383;-83
2023/01/04 04:23:09;;;;;;;14.52;4.40;;;22.30;99.90;;;;;;5052939;28;20379;-82
2023/01/04 04:25:36;;;;;;;14.38;4.38;;;22.30;99.90;;;;;;5052431;28;20514;-83
2023/01/04 04:28:03;;;;;;;11.85;4.20;;;22.20;99.90;;;;;;5052410;28;20412;-83
2023/01/04 04:30:29;;;;;;;14.48;4.50;;;22.20;99.90;;;;;;5048746;28;20478;-83
2023/01/04 04:32:56;;;;;;;12.57;4.53;;;22.20;99.90;;;;;;5052698;28;20769;-82
2023/01/04 04:35:23;;;;;;;14.38;4.30;;;22.20;99.90;;;;;;5058663;28;20415;-82
2023/01/04 04:37:50;;;;;;;12.55;4.13;;;22.10;99.90;;;;;;5053203;28;20461;-83
2023/01/04 04:43:08;;;;;;;10.35;3.65;;;21.90;99.90;;;;;;5010714;28;20911;-83
2023/01/04 04:45:35;;;;;;;9.80;3.53;;;21.40;99.90;;;;;;5000347;28;20406;-83
2023/01/04 04:48:01;;;;;;;13.52;3.58;;;21.80;99.90;;;;;;5009903;28;20381;-81
2023/01/04 04:50:28;;;;;;;10.15;3.45;;;21.90;99.90;;;;;;5008608;28;20479;-84
2023/01/04 04:52:55;;;;;;;11.85;3.47;;;21.80;99.90;;;;;;4993596;28;20820;-82
2023/01/04 04:55:22;;;;;;;9.82;3.35;;;21.80;99.90;;;;;;5026033;28;20389;-85
2023/01/04 04:57:49;;;;;;;9.52;3.22;;;21.90;99.90;;;;;;5018203;28;20900;-84
2023/01/04 05:00:16;;;;;;;8.95;3.20;;;22.00;99.90;;;;;;5014559;28;20417;-84
2023/01/04 05:02:44;;;;;;;9.32;2.92;;;22.10;99.90;;;;;;5010783;28;20789;-84
2023/01/04 05:05:11;;;;;;;11.35;3.00;;;22.30;99.90;;;;;;4998072;28;20883;-85
2023/01/04 05:07:38;;;;;;;7.78;2.70;;;22.50;99.90;;;;;;5004814;28;20401;-83
2023/01/04 05:10:05;;;;;;;10.07;2.72;;;22.80;99.90;;;;;;5014587;28;20397;-83
2023/01/04 05:15:17;;;;;;;7.13;2.53;;;23.10;99.90;;;;;;5005177;28;20399;-84
2023/01/04 05:17:44;;;;;;;7.82;2.50;;;23.20;99.90;;;;;;5008031;28;20413;-84
2023/01/04 05:20:12;;;;;;;7.95;2.60;;;23.50;99.90;;;;;;5036274;28;20404;-83
2023/01/04 05:22:39;;;;;;;5.88;2.10;;;23.80;99.90;;;;;;5052759;28;20386;-83
2023/01/04 05:25:08;;;;;;;5.75;1.92;;;23.80;99.90;;;;;;5056160;28;20401;-84
2023/01/04 05:27:35;;;;;;;5.95;2.15;;;23.90;99.90;;;;;;5048547;28;20739;-84
2023/01/04 05:32:49;;;;;;;6.32;1.92;;;24.20;99.90;;;;;;5052640;28;20442;-84
2023/01/04 05:35:16;;;;;;;5.40;1.88;;;24.20;99.90;;;;;;5053347;28;20844;-83
2023/01/04 05:37:43;;;;;;;7.43;1.92;;;24.00;99.90;;;;;;5052485;28;20383;-84
2023/01/04 05:40:10;;;;;;;6.35;2.00;;;23.90;99.90;;;;;;5048493;28;20474;-84
2023/01/04 05:42:37;;;;;;;9.43;2.05;;;23.80;99.90;;;;;;5046277;28;20555;-82
2023/01/04 05:45:05;;;;;;;5.28;1.80;;;23.80;99.90;;;;;;5046811;28;20392;-83
2023/01/04 05:47:33;;;;;;;6.32;2.17;;;23.90;99.90;;;;;;5046553;28;20384;-83
2023/01/04 05:50:00;;;;;;;6.03;2.15;;;24.10;99.90;;;;;;5047844;28;20440;-83
2023/01/04 05:52:27;;;;;;;7.35;2.08;;;24.10;99.90;;;;;;5045477;28;20403;-84
2023/01/04 05:54:54;;;;;;;7.15;2.70;;;24.00;99.90;;;;;;5033960;28;20473;-83
2023/01/04 05:57:21;;;;;;;5.95;1.92;;;23.90;99.90;;;;;;5056259;28;20395;-84
2023/01/04 05:59:48;;;;;;;7.18;1.80;;;23.70;99.90;;;;;;5037127;28;20478;-87
2023/01/04 06:02:23;;;;;;;4.43;1.90;;;23.60;99.90;;;;;;5058784;28;20395;-82
2023/01/04 06:04:50;;;;;;;6.38;2.17;;;23.40;99.90;;;;;;5035531;28;20396;-83
2023/01/04 06:07:17;;;;;;;6.13;2.08;;;23.40;99.90;;;;;;5042958;28;20412;-83
2023/01/04 06:09:44;;;;;;;6.55;1.98;;;23.40;99.90;;;;;;5059001;28;20398;-82
2023/01/04 06:12:13;;;;;;;5.05;1.55;;;23.30;99.90;;;;;;5070612;28;20463;-85
2023/01/04 06:14:40;;;;;;;6.88;1.83;;;23.30;99.90;;;;;;5007023;28;20435;-89
2023/01/04 06:17:07;;;;;;;5.55;1.80;;;23.30;99.90;;;;;;5062584;28;20386;-87
2023/01/04 06:19:35;;;;;;;5.93;1.80;;;23.30;99.90;;;;;;5036100;28;20376;-87
2023/01/04 06:22:02;;;;;;;4.95;1.70;;;23.20;99.90;;;;;;5067881;28;20861;-85
2023/01/04 06:24:29;;;;;;;4.88;1.50;;;23.20;99.90;;;;;;5063204;28;20842;-87
2023/01/04 06:26:56;;;;;;;6.28;1.42;;;23.00;99.90;;;;;;5065993;28;20374;-86
2023/01/04 06:29:23;;;;;;;3.80;1.38;;;22.80;99.90;;;;;;5064331;28;20374;-87
2023/01/04 06:31:50;;;;;;;2.50;1.20;;;22.60;99.90;;;;;;5058273;28;20904;-87
2023/01/04 06:34:17;;;;;;;3.92;1.27;;;22.60;99.90;;;;;;5058026;28;20370;-86
2023/01/04 06:36:44;;;;;;;2.10;0.98;;;22.50;99.90;;;;;;5025801;28;20396;-86
2023/01/04 06:39:11;;;;;;;3.58;1.00;;;22.50;99.90;;;;;;5057131;28;20374;-85
2023/01/04 06:41:38;;;;;;;2.95;1.00;;;22.50;99.90;;;;;;5075372;28;20742;-84
2023/01/04 06:44:06;;;;;;;3.42;0.90;;;22.50;99.90;;;;;;5060950;28;20739;-86
2023/01/04 06:46:33;;;;;;;1.85;0.90;;;22.40;99.90;;;;;;5055313;28;20418;-88
2023/01/04 06:49:00;;;;;;;2.15;0.80;;;22.30;99.90;;;;;;5053616;28;20382;-84
2023/01/04 06:51:27;;;;;;;2.83;0.90;;;22.20;99.90;;;;;;5052678;28;20398;-85
2023/01/04 06:53:53;;;;;;;1.35;0.60;;;22.10;99.90;;;;;;5053655;28;20402;-82
2023/01/04 06:56:20;;;;;;;1.85;0.70;;;22.00;99.90;;;;;;5053393;28;20416;-84
2023/01/04 06:58:47;;;;;;;1.98;0.50;;;22.00;99.90;;;;;;5055112;28;20392;-82
2023/01/04 07:01:14;;;;;;;0.80;0.40;;;21.90;99.90;;;;;;5055296;28;20421;-79
2023/01/04 07:03:41;;;;;;;0.77;0.38;;;21.70;99.90;;;;;;5061837;28;20398;-79
2023/01/04 07:06:09;;;;;;;0.70;0.30;;;21.60;99.90;;;;;;5052336;28;20384;-82
2023/01/04 07:08:36;;;;;;;0.40;0.30;;;21.40;99.90;;;;;;5054484;28;20392;-83
2023/01/04 07:11:03;;;;;;;1.45;0.43;;;21.40;99.90;;;;;;5053867;28;20418;-84
2023/01/04 07:13:30;;;;;;;0.47;0.30;;;21.50;99.90;;;;;;5034663;28;20388;-82
2023/01/04 07:15:57;;;;;;;0.60;0.30;;;21.50;99.90;;;;;;5053344;28;20375;-85
2023/01/04 07:18:24;;;;;;;0.95;0.30;;;21.70;99.90;;;;;;5054206;28;20546;-81
2023/01/04 07:20:51;;;;;;;0.30;0.30;;;22.20;99.90;;;;;;5047449;28;20407;-80
2023/01/04 07:23:18;;;;;;;1.30;0.50;;;22.30;99.90;;;;;;5054356;28;20372;-82
2023/01/04 07:25:45;;;;;;;1.30;0.50;;;22.30;99.90;;;;;;5048098;28;20386;-79
2023/01/04 07:29:13;;;;;;;0.60;0.40;;;22.20;99.90;;;;;;5060113;28;20738;-85
2023/01/04 07:31:02;;;;;;;0.80;0.45;;;22.00;99.90;;;;;;5050916;28;20453;-85
2023/01/04 07:33:29;;;;;;;0.50;0.40;;;21.90;99.90;;;;;;5045306;28;20478;-84
2023/01/04 07:36:02;;;;;;;0.60;0.30;;;21.90;99.90;;;;;;5053935;28;20360;-82
2023/01/04 07:38:29;;;;;;;1.00;0.40;;;21.80;99.90;;;;;;5054291;28;20376;-84
2023/01/04 07:40:56;;;;;;;0.73;0.50;;;21.90;99.90;;;;;;5055700;28;20388;-84
2023/01/04 07:43:22;;;;;;;0.85;0.55;;;21.90;99.90;;;;;;5047531;28;20394;-82
2023/01/04 07:45:50;;;;;;;1.67;1.10;;;21.90;99.90;;;;;;5052523;28;21300;-82
2023/01/04 07:48:17;;;;;;;0.90;0.50;;;21.80;99.90;;;;;;5043362;28;20423;-82
2023/01/04 07:50:50;;;;;;;1.33;0.70;;;21.70;99.90;;;;;;5049064;28;20461;-83
2023/01/04 07:53:17;;;;;;;0.80;0.55;;;21.60;99.90;;;;;;5046746;28;20814;-81
2023/01/04 07:55:44;;;;;;;0.73;0.50;;;21.50;99.90;;;;;;5052054;28;20379;-81
2023/01/04 07:58:11;;;;;;;1.35;0.55;;;21.60;99.90;;;;;;5057456;28;20380;-82
2023/01/04 08:00:38;;;;;;;1.30;0.70;;;21.60;99.90;;;;;;5055628;28;20379;-84
2023/01/04 08:03:05;;;;;;;1.58;0.70;;;21.50;99.90;;;;;;5052295;28;20376;-87
2023/01/04 08:05:34;;;;;;;0.82;0.60;;;21.40;99.90;;;;;;5044339;28;20417;-81
2023/01/04 08:08:01;;;;;;;1.20;0.80;;;21.40;99.90;;;;;;5039554;28;20416;-81
2023/01/04 08:10:28;;;;;;;1.00;0.70;;;21.40;99.90;;;;;;5059824;28;20378;-85
2023/01/04 08:13:01;;;;;;;1.10;0.80;;;21.40;99.90;;;;;;5063103;28;20407;-84
2023/01/04 08:15:30;;;;;;;0.93;0.70;;;21.30;99.90;;;;;;5057444;28;20859;-84
2023/01/04 08:17:57;;;;;;;1.17;0.90;;;21.10;99.90;;;;;;5038603;28;20447;-86
2023/01/04 08:20:24;;;;;;;0.70;0.70;;;21.10;99.90;;;;;;5036331;28;20377;-85
2023/01/04 08:22:51;;;;;;;2.20;0.80;;;21.00;99.90;;;;;;5049156;28;20376;-83
2023/01/04 08:25:17;;;;;;;1.40;0.80;;;21.00;99.90;;;;;;5051123;28;20391;-86
2023/01/04 08:27:45;;;;;;;1.60;0.90;;;20.90;99.90;;;;;;5046882;28;20461;-81
2023/01/04 08:30:12;;;;;;;1.58;0.90;;;20.80;99.90;;;;;;5060086;28;20386;-82
2023/01/04 08:32:39;;;;;;;2.25;0.88;;;20.70;99.90;;;;;;5038633;28;20408;-82
2023/01/04 08:35:07;;;;;;;1.77;1.05;;;20.60;99.90;;;;;;5056441;28;20376;-81
2023/01/04 08:37:34;;;;;;;1.60;0.90;;;20.60;99.90;;;;;;5052316;28;20434;-82
2023/01/04 08:40:01;;;;;;;2.92;1.00;;;20.70;99.90;;;;;;5052071;28;20487;-83
2023/01/04 08:42:28;;;;;;;2.58;1.00;;;20.70;99.90;;;;;;5051455;28;20446;-83
2023/01/04 08:44:57;;;;;;;1.70;1.00;;;20.60;99.90;;;;;;5046633;28;20441;-85
2023/01/04 08:47:24;;;;;;;2.28;0.95;;;20.60;99.90;;;;;;5051016;28;20391;-85
2023/01/04 08:49:51;;;;;;;2.13;1.00;;;20.60;99.90;;;;;;5048865;28;20379;-84
2023/01/04 08:52:18;;;;;;;3.38;1.20;;;20.60;99.90;;;;;;5050852;28;20407;-87
2023/01/04 08:54:45;;;;;;;2.72;1.20;;;20.50;99.90;;;;;;5018246;28;20531;-85
2023/01/04 08:57:12;;;;;;;2.90;1.20;;;20.30;99.90;;;;;;5041276;28;20381;-84
2023/01/04 08:59:39;;;;;;;2.42;1.17;;;20.30;99.90;;;;;;5048058;28;20397;-83
2023/01/04 09:02:24;;;;;;;2.42;1.30;;;20.30;99.90;;;;;;5041693;28;20394;-86
2023/01/04 09:04:58;;;;;;;3.17;1.10;;;20.40;99.90;;;;;;5041395;28;20410;-86
2023/01/04 09:07:29;;;;;;;3.72;1.27;;;20.50;99.90;;;;;;5049410;28;20984;-85
2023/01/04 09:09:56;;;;;;;2.60;1.30;;;20.40;99.90;;;;;;5039195;28;20389;-87
2023/01/04 09:12:24;;;;;;;1.70;1.38;;;20.30;99.90;;;;;;5034539;28;21205;-84
2023/01/04 09:14:51;;;;;;;2.80;1.30;;;20.20;99.90;;;;;;5044012;28;20399;-82
2023/01/04 09:17:18;;;;;;;3.20;1.55;;;20.30;99.90;;;;;;5046050;28;20400;-81
2023/01/04 09:19:45;;;;;;;3.53;1.50;;;20.30;99.90;;;;;;5041234;28;20383;-81
2023/01/04 09:22:12;;;;;;;2.45;1.40;;;20.30;99.90;;;;;;5049204;28;20390;-85
2023/01/04 09:24:39;;;;;;;3.57;1.40;;;20.30;99.90;;;;;;5045487;28;20864;-81
2023/01/04 09:27:06;;;;;;;3.93;1.50;;;20.30;99.90;;;;;;5051590;28;20384;-86
2023/01/04 09:29:33;;;;;;;3.45;1.58;;;20.30;99.90;;;;;;5045196;28;20894;-83
2023/01/04 09:32:00;;;;;;;3.40;1.42;;;20.40;99.90;;;;;;5041337;28;20413;-81
2023/01/04 09:34:28;;;;;;;4.05;1.60;;;20.40;99.90;;;;;;5058260;28;20446;-86
2023/01/04 09:36:54;;;;;;;3.43;1.40;;;20.40;99.90;;;;;;5040235;28;20899;-84
2023/01/04 09:39:23;;;;;;;3.00;1.40;;;20.40;99.90;;;;;;5041617;28;20835;-86
2023/01/04 09:42:02;;;;;;;2.30;1.50;;;20.30;99.90;;;;;;5047893;28;20947;-82
2023/01/04 09:44:49;;;;;;;19.60;4.45;;;20.30;99.90;;;;;;5046337;28;20387;-84
2023/01/04 09:47:33;;;;;;;9.13;2.35;;;20.00;99.90;;;;;;5051482;28;20368;-85
2023/01/04 09:50:15;;;;;;;17.40;3.60;;;19.40;99.90;;;;;;5054515;28;20400;-86
2023/01/04 09:53:05;;;;;;;9.43;3.40;;;19.20;99.90;;;;;;5053710;28;20414;-86
2023/01/04 09:55:42;;;;;;;6.22;3.60;;;19.00;99.90;;;;;;5050933;28;20383;-85
2023/01/04 09:58:26;;;;;;;7.93;4.03;;;18.90;99.90;;;;;;5048822;28;20457;-86
2023/01/04 10:01:38;;;;;;;8.15;3.95;;;18.90;99.90;;;;;;5041262;28;20490;-89
2023/01/04 10:04:15;;;;;;;7.00;3.20;;;18.90;99.90;;;;;;4972810;28;20922;-84
2023/01/04 10:06:43;;;;;;;4.65;2.30;;;18.80;99.90;;;;;;4973860;28;20417;-85
2023/01/04 10:09:13;;;;;;;4.68;1.95;;;18.70;99.90;;;;;;4964965;28;20495;-84
2023/01/04 10:11:52;;;;;;;3.30;1.52;;;18.60;99.90;;;;;;4959759;28;20509;-87
2023/01/04 10:14:39;;;;;;;2.55;1.40;;;18.50;99.90;;;;;;4972464;28;20386;-86
2023/01/04 10:17:09;;;;;;;2.05;1.42;;;18.50;99.90;;;;;;4969361;28;20748;-86
2023/01/04 10:19:50;;;;;;;2.38;1.60;;;18.50;99.90;;;;;;4968056;28;20400;-85
2023/01/04 10:22:59;;;;;;;3.63;2.10;;;18.60;99.90;;;;;;4973591;28;20405;-86
2023/01/04 10:25:39;;;;;;;1.98;1.75;;;18.60;99.90;;;;;;4954678;28;20380;-81
2023/01/04 10:28:39;;;;;;;2.33;1.40;;;18.70;99.90;;;;;;4947412;28;20396;-83
2023/01/04 10:31:27;;;;;;;4.43;1.57;;;18.70;99.90;;;;;;4955357;28;20392;-82
2023/01/04 10:34:06;;;;;;;2.45;1.52;;;18.70;99.90;;;;;;4950546;28;20400;-84
2023/01/04 10:36:33;;;;;;;2.45;1.70;;;18.70;99.90;;;;;;4946477;28;20404;-84
2023/01/04 10:39:05;;;;;;;1.90;1.60;;;18.70;99.90;;;;;;5006357;28;20462;-83
2023/01/04 10:41:52;;;;;;;2.78;1.60;;;18.70;99.90;;;;;;5013835;28;20461;-86
2023/01/04 10:45:07;;;;;;;3.17;1.40;;;18.80;99.90;;;;;;5007049;28;20473;-85
2023/01/04 10:48:11;;;;;;;2.30;1.13;;;18.80;99.90;;;;;;4982623;28;20386;-82
2023/01/04 10:50:54;;;;;;;3.20;1.50;;;18.80;99.90;;;;;;4990893;28;20943;-85
2023/01/04 10:53:49;;;;;;;2.35;1.50;;;18.80;99.90;;;;;;4991392;28;21009;-81
2023/01/04 10:56:19;;;;;;;3.10;1.60;;;18.80;99.90;;;;;;5002181;28;20796;-80
2023/01/04 10:59:04;;;;;;;2.53;1.30;;;18.80;99.90;;;;;;4985635;28;20391;-82
2023/01/04 11:01:43;;;;;;;2.25;1.35;;;18.70;99.90;;;;;;4978423;28;20427;-78
2023/01/04 11:04:25;;;;;;;2.40;1.90;;;18.70;99.90;;;;;;4987395;28;20853;-81
2023/01/04 11:06:58;;;;;;;2.10;1.85;;;18.80;99.90;;;;;;4990931;28;20400;-83
2023/01/04 11:09:43;;;;;;;3.10;1.95;;;18.70;99.90;;;;;;4990733;28;20917;-83
2023/01/04 11:12:14;;;;;;;4.55;3.50;;;18.80;99.90;;;;;;4992097;28;20424;-85
2023/01/04 11:14:42;;;;;;;2.47;2.00;;;18.70;99.90;;;;;;4993867;28;20389;-85
2023/01/04 11:17:11;;;;;;;1.85;0.90;;;18.80;99.90;;;;;;5004603;28;20387;-86
2023/01/04 11:19:38;;;;;;;1.10;0.80;;;18.50;99.90;;;;;;4993451;28;20377;-84
2023/01/04 11:22:28;;;;;;;1.80;0.90;;;18.30;99.90;;;;;;5042795;28;20428;-85
2023/01/04 11:25:05;;;;;;;1.90;0.80;;;18.30;99.90;;;;;;5060715;28;20455;-85
2023/01/04 11:27:41;;;;;;;2.03;0.90;;;18.30;99.90;;;;;;5050636;28;20384;-85
2023/01/04 11:30:18;;;;;;;0.00;0.00;;;18.20;99.90;;;;;;5052126;28;20375;-83
2023/01/04 11:33:04;;;;;;;1.48;0.80;;;18.30;99.90;;;;;;5047770;28;20523;-85
2023/01/04 11:35:43;;;;;;;1.10;0.50;;;18.30;99.90;;;;;;5065894;28;20385;-85
2023/01/04 11:38:13;;;;;;;1.02;0.57;;;18.30;99.90;;;;;;5034239;28;20384;-85
2023/01/04 11:40:41;;;;;;;2.38;1.33;;;18.30;99.90;;;;;;5051969;28;20380;-84
2023/01/04 11:43:16;;;;;;;2.42;1.90;;;18.30;99.90;;;;;;5034211;28;20384;-85
2023/01/04 11:45:54;;;;;;;1.88;1.10;;;18.20;99.90;;;;;;5043386;28;20472;-85
2023/01/04 11:48:31;;;;;;;0.20;0.20;;;18.10;99.90;;;;;;5052355;28;20902;-82
2023/01/04 11:50:59;;;;;;;2.25;0.73;;;18.00;99.90;;;;;;5068025;28;20675;-87
2023/01/04 11:53:33;;;;;;;3.45;0.60;;;17.90;99.90;;;;;;5053410;28;20439;-90
2023/01/04 11:56:17;;;;;;;0.70;0.50;;;17.90;99.90;;;;;;5043235;28;20380;-87
2023/01/04 11:59:04;;;;;;;2.15;0.60;;;17.90;99.90;;;;;;5061899;28;20881;-85
2023/01/04 12:01:33;;;;;;;2.75;0.80;;;17.80;99.90;;;;;;5036538;28;20426;-88
2023/01/04 12:04:01;;;;;;;1.83;0.90;;;17.80;99.90;;;;;;5036860;28;20388;-89
2023/01/04 12:06:46;;;;;;;0.93;0.60;;;17.80;99.90;;;;;;5039715;28;20394;-87
2023/01/04 12:09:16;;;;;;;1.27;0.55;;;17.60;99.90;;;;;;5045603;28;20419;-86
2023/01/04 12:11:55;;;;;;;1.35;0.50;;;17.50;99.90;;;;;;5052245;28;20404;-93
2023/01/04 12:14:28;;;;;;;0.82;0.50;;;17.50;99.90;;;;;;5051844;28;20462;-87
2023/01/04 12:17:04;;;;;;;0.80;0.50;;;17.50;99.90;;;;;;5052552;28;20443;-92
2023/01/04 12:19:31;;;;;;;1.63;0.52;;;17.50;99.90;;;;;;5040017;28;20485;-89
2023/01/04 12:22:02;;;;;;;2.88;0.50;;;17.40;99.90;;;;;;5050107;28;20391;-85
2023/01/04 12:24:33;;;;;;;1.27;0.40;;;17.30;99.90;;;;;;5051972;28;20376;-85
2023/01/04 12:27:03;;;;;;;1.33;0.57;;;17.30;99.90;;;;;;5032219;28;20380;-85
2023/01/04 12:29:51;;;;;;;1.40;0.40;;;17.20;99.90;;;;;;5044534;28;20381;-87
2023/01/04 12:32:18;;;;;;;0.70;0.40;;;17.20;99.90;;;;;;5029939;28;20774;-84
2023/01/04 12:34:47;;;;;;;2.08;0.60;;;17.10;99.90;;;;;;5045451;28;20875;-86
2023/01/04 12:37:48;;;;;;;3.42;0.60;;;17.10;99.90;;;;;;5046664;28;20421;-87
2023/01/04 12:40:45;;;;;;;26.53;1.97;;;17.00;99.90;;;;;;5042910;28;20388;-88
2023/01/04 12:43:15;;;;;;;16.65;1.45;;;17.20;99.90;;;;;;5042863;28;20451;-88
2023/01/04 12:45:43;;;;;;;20.42;1.70;;;17.30;99.90;;;;;;5051393;28;20371;-91
2023/01/04 12:51:28;;;;;;;3.08;0.57;;;17.10;99.90;;;;;;5051113;28;20870;-92
2023/01/04 12:54:16;;;;;;;2.75;1.05;;;17.00;99.90;;;;;;5050500;28;20879;-88
2023/01/04 12:57:31;;;;;;;6.65;1.00;;;16.90;99.90;;;;;;5044135;28;20393;-82
2023/01/04 13:00:08;;;;;;;3.67;0.90;;;16.90;99.90;;;;;;4969005;28;20406;-84
2023/01/04 13:02:49;;;;;;;1.70;0.68;;;17.00;99.90;;;;;;4969440;28;20401;-90
2023/01/04 13:05:18;;;;;;;2.58;0.70;;;16.90;99.90;;;;;;4969528;28;20458;-85
2023/01/04 13:07:51;;;;;;;1.95;0.80;;;16.90;99.90;;;;;;4969464;28;20982;-86
2023/01/04 13:10:34;;;;;;;7.68;1.10;;;16.90;99.90;;;;;;4968687;28;20402;-86
2023/01/04 13:13:25;;;;;;;3.05;0.88;;;16.80;99.90;;;;;;4958749;28;20417;-92
2023/01/04 13:16:25;;;;;;;1.63;0.70;;;16.80;99.90;;;;;;4970048;28;20394;-94
2023/01/04 13:18:58;;;;;;;5.15;1.00;;;16.80;99.90;;;;;;4949370;28;20431;-83
2023/01/04 13:21:32;;;;;;;1.25;0.60;;;16.80;99.90;;;;;;4938743;28;20753;-85
2023/01/04 13:24:19;;;;;;;2.00;0.68;;;16.90;99.90;;;;;;4946021;28;20485;-83
2023/01/04 13:26:49;;;;;;;1.58;0.60;;;16.80;99.90;;;;;;4936836;28;20428;-87
2023/01/04 13:29:34;;;;;;;1.17;0.60;;;16.80;99.90;;;;;;4946721;28;20396;-85
2023/01/04 13:32:20;;;;;;;2.08;0.75;;;16.80;99.90;;;;;;4949236;28;20804;-85
2023/01/04 13:34:59;;;;;;;1.40;0.68;;;16.80;99.90;;;;;;4949503;28;20396;-84
2023/01/04 13:37:36;;;;;;;3.65;0.80;;;16.70;99.90;;;;;;4964061;28;21006;-85
2023/01/04 13:40:14;;;;;;;1.60;0.60;;;16.60;99.90;;;;;;4967928;28;20484;-84
2023/01/04 13:42:45;;;;;;;1.67;0.70;;;16.60;99.90;;;;;;4969023;28;20413;-85
2023/01/04 13:45:38;;;;;;;1.80;0.60;;;16.60;99.90;;;;;;4968867;28;20387;-86
2023/01/04 13:48:11;;;;;;;2.90;0.60;;;16.60;99.90;;;;;;4968361;28;20406;-83
2023/01/04 13:50:48;;;;;;;2.37;0.50;;;16.60;99.90;;;;;;4968341;28;20399;-85
2023/01/04 13:53:24;;;;;;;1.55;0.63;;;16.60;99.90;;;;;;4966930;28;20410;-84
2023/01/04 13:55:53;;;;;;;2.13;0.70;;;16.60;99.90;;;;;;5034228;28;20381;-85
2023/01/04 13:58:22;;;;;;;1.20;0.60;;;16.60;99.90;;;;;;5065580;28;20447;-83
2023/01/04 14:01:00;;;;;;;1.38;0.80;;;16.70;99.90;;;;;;5057143;28;20395;-84